BIENVENIDO A Fly Ecuador Virtual

Fly Ecuador Virtual es una organización creada con el fin de brindar una plataforma que permita a los pilotos virtuales, principalmente ecuatorianos, tener un lugar donde registrar sus horas de vuelo, sus certificados de conocimiento adquiridos, las rutas que han volado y los destinos que han visitado. Así mismo, se busca ayudar a todos los pilotos a expandir su conocimiento sobre el mundo de la aviación real y virtual por medio de publicaciones, foros y cursos en línea.

A diferencia de las aerolíneas virtuales tradicionales, Fly Ecuador Virtual no simula las operaciones de una aerolínea del mundo real en específico. Un miembro de Fly Ecuador Virtual tiene toda la libertad de volar cualquier aeronave que opere en el espacio aéreo ecuatoriano real, en cualquier ruta, sea esta nacional o internacional, IFR o VFR, aeronaves monomotor, multimotor o helicópteros. Todo esto con el objetivo de expandir las operaciones virtuales dentro del espacio aéreo ecuatoriano, creando una comunidad en la que se compartan conocimientos y experiencias que beneficien a todos sus integrantes.

El crecimiento de Fly Ecuador Virtual depende de la participación conjunta de todos sus miembros, por este motivo se incentiva la participación en línea a través de los diferentes medios descritos más adelante en este sitio web.

 ESTADÍSTICAS

Pilotos 77
Aeronaves en flota 0
Rutas 0
Horas totales: 10514.52
Vuelos totales 1684
Vuelos Regular 0
Vuelos Charter 1731
% Vuelos Regular 0.00 %

 ÚLTIMOS VUELOS

IndicativoPilotoOrigenDestinoFechaTiempo de vuelo
ECU024Arturo Carvajal  SEGS  MRLB 2018-11-11 1.99
ECU085Julio Chila Barrezueta  SEQM  SKCG 2018-11-05 3.06
ECU018Luis Heredia  SVMI  SOCA 2018-11-03 2.15
ECU018Luis Heredia  SEGU  SPJC 2018-10-28 1.48

 NUEVOS PILOTOS

 Consultar METAR

METAR
SEGU - José Joaquín de Olmedo International Airport, Guayaquil, ECU
Distance from station: N 0mi, 0km
Updated: Sat, 17-Nov-2018 9:00pm PST
Mostly Cloudy
Mostly Cloudy
 Wind from WSW
Wind: WSW 12 mph , 19 km/h
Temperature: 73°F , 23°C
Dew Point: 66°F , 19°C
Humidity: 78%
Barometer: 29.83 inHg , 1010 hPa
Clouds: Mostly Cloudy
Visibility: 6 miles , 10 km
Cloud details: Few Clouds 2600 ft
Mostly Cloudy 10000 ft
2018/11/18 05:00 SEGU 180500Z 24010KT 9999 FEW026 BKN100 23/19 Q1010 NOSIG RMK A2984
 
SEQM - Aeropuerto Internacional Mariscal Sucre, ECU
Distance from station: NE 120mi, 200km
Updated: Sat, 17-Nov-2018 9:00pm PST
Mostly Cloudy
Mostly Cloudy
 Wind from SSE
Wind: SSE 3 mph , 6 km/h
Temperature: 54°F , 12°C
Dew Point: 54°F , 12°C
Humidity: 100%
Barometer: 30.27 inHg , 1025 hPa
Clouds: Mostly Cloudy
Visibility: 6 miles , 10 km
Cloud details: Few Clouds 500 ft
Mostly Cloudy 7000 ft
2018/11/18 05:00 SEQM 180500Z 15003KT 9999 FEW005 BKN070 12/12 Q1025 NOSIG RMK A3029
 
SECU - Mariscal Lamar Airpor, ECU
Distance from station: ENE 80mi, 120km
Updated: Sat, 17-Nov-2018 9:00pm PST

 Wind from calm
Wind: Calm
2018/11/18 05:00 SECU 180500Z AUTO 00000KT ////NDV NCD 14/13 Q1025
 
SELT - Cotopaxi International Airport, ECU
Distance from station: NW 21mi, 34km
Updated: Sat, 17-Nov-2018 9:00pm PST
Mostly Cloudy
Mostly Cloudy
 Wind from E
Wind: E 1 mph , 2 km/h
Temperature: 52°F , 11°C
Dew Point: 50°F , 10°C
Humidity: 94%
Barometer: 30.42 inHg , 1030 hPa
Clouds: Mostly Cloudy
Visibility: 6 miles , 10 km
Cloud details: Few Clouds 500 ft
Partly Cloudy 3000 ft
Mostly Cloudy 10000 ft
2018/11/18 05:00 SELT 180500Z 09001KT 9999 FEW005 SCT030 BKN100 11/10 Q1030
 
SEMT - Eloy Alfaro International Airport, ECU
Distance from station: SSE 70mi, 100km
Updated: Sat, 17-Nov-2018 9:00pm PST
Clear
Clear
 Wind from SSW
Wind: SSW 7 mph , 11 km/h
Temperature: 73°F , 23°C
Dew Point: 68°F , 20°C
Humidity: 83%
Barometer: 29.85 inHg , 1011 hPa
Summary: Clear
Visibility: greater than 7 miles , 10 km
2018/11/18 05:00 SEMT 180500Z 21006KT CAVOK 23/20 Q1011 RMK A2988

Metar display script from Saratoga-Weather.org

 NOTAMS

NOTAMFecha



Fly Ecuador Virtual 2018 | System by VAM